createdAt,value
2023-02-28T00:01:28.224Z,21.20
2023-02-28T00:03:55.029Z,15.40
2023-02-28T00:06:21.649Z,12.20
2023-02-28T00:08:48.862Z,8.10
2023-02-28T00:11:17.061Z,9.60
2023-02-28T00:13:46.960Z,13.10
2023-02-28T00:16:20.871Z,9.10
2023-02-28T00:18:48.647Z,16.90
2023-02-28T00:21:17.311Z,11.10
2023-02-28T00:23:44.279Z,14.20
2023-02-28T00:26:10.917Z,12.30
2023-02-28T00:28:37.689Z,15.40
2023-02-28T00:31:05.114Z,14.30
2023-02-28T00:33:31.636Z,16.30
2023-02-28T00:36:08.462Z,14.80
2023-02-28T00:38:34.983Z,12.90
2023-02-28T00:41:04.900Z,12.90
2023-02-28T00:43:37.117Z,9.90
2023-02-28T00:46:04.973Z,11.70
2023-02-28T00:48:32.457Z,10.10
2023-02-28T00:50:59.134Z,13.80
2023-02-28T00:53:25.857Z,15.20
2023-02-28T00:55:52.600Z,15.70
2023-02-28T00:58:19.317Z,15.10
2023-02-28T01:00:49.534Z,15.30
2023-02-28T01:03:18.813Z,13.20
2023-02-28T01:05:46.591Z,12.80
2023-02-28T01:08:14.364Z,8.10
2023-02-28T01:10:41.636Z,11.50
2023-02-28T01:13:08.484Z,10.50
2023-02-28T01:15:35.078Z,6.80
2023-02-28T01:18:01.734Z,12.40
2023-02-28T01:20:28.260Z,14.90
2023-02-28T01:22:54.811Z,15.00
2023-02-28T01:25:21.268Z,16.10
2023-02-28T01:27:47.711Z,14.80
2023-02-28T01:30:14.866Z,8.10
2023-02-28T01:32:41.273Z,12.50
2023-02-28T01:35:08.144Z,12.60
2023-02-28T01:37:34.523Z,9.80
2023-02-28T01:40:00.979Z,12.80
2023-02-28T01:42:27.433Z,13.90
2023-02-28T01:45:30.305Z,11.50
2023-02-28T01:48:05.938Z,14.00
2023-02-28T01:50:41.585Z,10.30
2023-02-28T01:53:18.069Z,12.90
2023-02-28T01:55:50.230Z,13.70
2023-02-28T01:58:16.986Z,15.10
2023-02-28T02:00:43.361Z,17.00
2023-02-28T02:03:17.173Z,17.00
2023-02-28T02:05:48.004Z,15.50
2023-02-28T02:08:21.083Z,14.00
2023-02-28T02:10:59.732Z,14.20
2023-02-28T02:13:53.240Z,13.90
2023-02-28T02:16:58.871Z,10.90
2023-02-28T02:20:08.854Z,10.30
2023-02-28T02:23:00.311Z,12.00
2023-02-28T02:25:54.776Z,11.20
2023-02-28T02:28:42.182Z,13.10
2023-02-28T02:31:28.835Z,7.10
2023-02-28T02:34:49.496Z,7.00
2023-02-28T02:37:41.508Z,8.30
2023-02-28T02:40:38.483Z,11.20
2023-02-28T02:43:19.641Z,6.50
2023-02-28T02:45:54.898Z,9.90
2023-02-28T02:48:29.457Z,9.40
2023-02-28T02:51:01.630Z,9.90
2023-02-28T02:53:44.498Z,8.40
2023-02-28T02:56:13.088Z,10.20
2023-02-28T02:58:44.425Z,9.70
2023-02-28T03:01:28.629Z,10.60
2023-02-28T03:04:02.423Z,10.60
2023-02-28T03:06:29.241Z,9.50
2023-02-28T03:08:55.798Z,7.00
2023-02-28T03:11:23.157Z,7.40
2023-02-28T03:14:10.261Z,7.40
2023-02-28T03:17:21.434Z,10.70
2023-02-28T03:19:53.504Z,9.30
2023-02-28T03:22:35.220Z,9.80
2023-02-28T03:25:12.481Z,8.20
2023-02-28T03:28:09.998Z,7.70
2023-02-28T03:30:49.038Z,8.20
2023-02-28T03:33:23.526Z,7.80
2023-02-28T03:35:59.593Z,7.10
2023-02-28T03:38:36.441Z,8.60
2023-02-28T03:41:28.433Z,8.30
2023-02-28T03:44:06.614Z,8.50
2023-02-28T03:46:40.745Z,8.80
2023-02-28T03:49:23.459Z,8.40
2023-02-28T03:51:54.118Z,5.70
2023-02-28T03:54:29.662Z,6.60
2023-02-28T03:57:27.945Z,8.40
2023-02-28T04:00:06.348Z,5.90
2023-02-28T04:02:33.611Z,5.30
2023-02-28T04:05:01.492Z,4.80
2023-02-28T04:07:32.548Z,4.80
2023-02-28T04:09:59.924Z,7.00
2023-02-28T04:12:27.050Z,6.70
2023-02-28T04:14:53.591Z,5.70
2023-02-28T04:17:20.012Z,4.80
2023-02-28T04:19:46.524Z,5.30
2023-02-28T04:22:13.917Z,3.20
2023-02-28T04:24:43.417Z,5.30
2023-02-28T04:27:10.322Z,5.70
2023-02-28T04:29:37.183Z,6.20
2023-02-28T04:32:04.665Z,7.00
2023-02-28T04:34:33.164Z,5.10
2023-02-28T04:37:12.267Z,5.40
2023-02-28T04:39:40.918Z,5.40
2023-02-28T04:42:08.199Z,5.50
2023-02-28T04:44:34.845Z,3.40
2023-02-28T04:47:01.390Z,6.00
2023-02-28T04:49:27.883Z,1.60
2023-02-28T04:51:54.322Z,5.00
2023-02-28T04:54:20.828Z,5.40
2023-02-28T04:56:50.114Z,4.70
2023-02-28T04:59:16.765Z,3.90
2023-02-28T05:01:48.134Z,5.20
2023-02-28T05:04:15.329Z,4.80
2023-02-28T05:06:42.128Z,5.00
2023-02-28T05:09:14.043Z,4.20
2023-02-28T05:11:41.275Z,2.80
2023-02-28T05:14:13.564Z,4.20
2023-02-28T05:16:40.348Z,5.50
2023-02-28T05:19:07.222Z,4.40
2023-02-28T05:21:38.465Z,5.10
2023-02-28T05:24:12.299Z,5.10
2023-02-28T05:26:42.008Z,3.90
2023-02-28T05:29:12.199Z,6.40
2023-02-28T05:31:38.960Z,5.50
2023-02-28T05:34:05.746Z,5.70
2023-02-28T05:36:33.041Z,6.20
2023-02-28T05:38:59.701Z,4.00
2023-02-28T05:41:26.587Z,3.80
2023-02-28T05:43:52.990Z,1.40
2023-02-28T05:46:19.415Z,3.00
2023-02-28T05:48:48.708Z,3.40
2023-02-28T05:51:15.619Z,3.90
2023-02-28T05:53:42.064Z,4.10
2023-02-28T05:56:08.531Z,4.30
2023-02-28T05:58:35.096Z,5.00
2023-02-28T06:01:41.077Z,5.00
2023-02-28T06:04:16.705Z,2.20
2023-02-28T06:06:52.467Z,3.10
2023-02-28T06:09:19.686Z,2.70
2023-02-28T06:11:46.309Z,4.10
2023-02-28T06:14:18.472Z,2.70
2023-02-28T06:16:45.515Z,2.40
2023-02-28T06:19:11.973Z,3.80
2023-02-28T06:21:38.803Z,3.10
2023-02-28T06:24:05.770Z,1.60
2023-02-28T06:26:32.522Z,2.50
2023-02-28T06:28:59.040Z,3.20
2023-02-28T06:31:26.311Z,1.80
2023-02-28T06:33:52.795Z,3.10
2023-02-28T06:36:19.311Z,2.30
2023-02-28T06:38:46.240Z,3.10
2023-02-28T06:41:12.789Z,2.50
2023-02-28T06:43:42.651Z,2.50
2023-02-28T06:46:14.327Z,2.80
2023-02-28T06:48:43.207Z,3.20
2023-02-28T06:51:24.627Z,3.20
2023-02-28T06:53:51.922Z,3.20
2023-02-28T06:56:20.639Z,4.10
2023-02-28T06:58:50.070Z,3.80
2023-02-28T07:01:17.480Z,3.40
2023-02-28T07:03:43.887Z,4.20
2023-02-28T07:06:10.719Z,3.50
2023-02-28T07:08:37.531Z,3.70
2023-02-28T07:11:04.738Z,4.10
2023-02-28T07:13:31.917Z,3.80
2023-02-28T07:16:05.920Z,3.90
2023-02-28T07:18:32.838Z,3.50
2023-02-28T07:21:04.367Z,4.20
2023-02-28T07:23:31.418Z,3.60
2023-02-28T07:25:58.185Z,2.50
2023-02-28T07:28:26.126Z,4.00
2023-02-28T07:30:52.758Z,3.60
2023-02-28T07:33:19.337Z,3.90
2023-02-28T07:35:45.933Z,4.30
2023-02-28T07:38:14.124Z,3.00
2023-02-28T07:40:40.689Z,3.00
2023-02-28T07:43:07.121Z,3.70
2023-02-28T07:45:34.964Z,4.40
2023-02-28T07:48:02.682Z,3.50
2023-02-28T07:50:32.349Z,3.70
2023-02-28T07:52:59.791Z,3.50
2023-02-28T07:55:26.785Z,3.00
2023-02-28T07:57:53.240Z,2.10
2023-02-28T08:00:20.415Z,3.50
2023-02-28T08:02:46.887Z,3.60
2023-02-28T08:05:13.532Z,3.80
2023-02-28T08:07:40.010Z,4.50
2023-02-28T08:10:09.110Z,4.50
2023-02-28T08:12:35.824Z,4.60
2023-02-28T08:15:02.722Z,4.30
2023-02-28T08:17:29.283Z,3.40
2023-02-28T08:19:55.728Z,3.60
2023-02-28T08:22:22.355Z,3.30
2023-02-28T08:24:49.664Z,4.10
2023-02-28T08:27:16.116Z,2.00
2023-02-28T08:29:42.550Z,4.50
2023-02-28T08:32:14.713Z,3.80
2023-02-28T08:34:48.061Z,4.60
2023-02-28T08:37:14.812Z,4.60
2023-02-28T08:39:43.831Z,3.30
2023-02-28T08:42:10.269Z,3.60
2023-02-28T08:44:36.772Z,3.70
2023-02-28T08:47:03.205Z,3.90
2023-02-28T08:49:29.787Z,4.10
2023-02-28T08:51:57.635Z,3.80
2023-02-28T08:54:24.886Z,3.60
2023-02-28T08:56:51.576Z,1.90
2023-02-28T08:59:18.088Z,2.20
2023-02-28T09:01:44.479Z,2.50
2023-02-28T09:04:12.450Z,3.10
2023-02-28T09:06:39.930Z,2.90
2023-02-28T09:09:07.757Z,2.30
2023-02-28T09:11:35.829Z,3.30
2023-02-28T09:14:03.799Z,3.80
2023-02-28T09:16:33.489Z,2.20
2023-02-28T09:19:01.039Z,3.20
2023-02-28T09:21:28.600Z,2.60
2023-02-28T09:23:55.509Z,2.90
2023-02-28T09:26:32.564Z,2.70
2023-02-28T09:29:05.433Z,2.50
2023-02-28T09:31:31.909Z,2.10
2023-02-28T09:33:59.711Z,2.80
2023-02-28T09:36:37.987Z,2.70
2023-02-28T09:39:12.658Z,3.50
2023-02-28T09:41:50.833Z,3.70
2023-02-28T09:44:37.433Z,3.00
2023-02-28T09:47:29.471Z,4.00
2023-02-28T09:50:03.746Z,4.20
2023-02-28T09:52:32.937Z,3.80
2023-02-28T09:55:24.335Z,3.80
2023-02-28T09:57:52.417Z,3.70
2023-02-28T10:00:27.978Z,2.30
2023-02-28T10:03:19.996Z,2.30
2023-02-28T10:05:54.900Z,2.60
2023-02-28T10:08:32.838Z,3.20
2023-02-28T10:11:06.985Z,2.70
2023-02-28T10:13:58.382Z,3.70
2023-02-28T10:17:10.874Z,2.60
2023-02-28T10:19:49.383Z,1.50
2023-02-28T10:22:34.635Z,2.20
2023-02-28T10:25:06.809Z,1.00
2023-02-28T10:27:33.466Z,1.80
2023-02-28T10:30:02.353Z,1.40
2023-02-28T10:32:35.661Z,1.80
2023-02-28T10:35:23.795Z,1.60
2023-02-28T10:38:00.200Z,1.70
2023-02-28T10:40:36.106Z,2.00
2023-02-28T10:43:15.629Z,2.20
2023-02-28T10:46:03.375Z,1.40
2023-02-28T10:49:22.279Z,1.80
2023-02-28T10:51:59.300Z,1.80
2023-02-28T10:54:38.147Z,2.20
2023-02-28T10:57:26.781Z,2.00
2023-02-28T11:00:14.336Z,2.50
2023-02-28T11:02:43.387Z,3.10
2023-02-28T11:05:36.731Z,3.50
2023-02-28T11:08:13.052Z,2.40
2023-02-28T11:10:40.606Z,2.50
2023-02-28T11:13:07.131Z,3.90
2023-02-28T11:15:35.676Z,4.80
2023-02-28T11:18:32.795Z,3.50
2023-02-28T11:21:02.418Z,4.40
2023-02-28T11:23:34.825Z,3.40
2023-02-28T11:26:05.657Z,2.20
2023-02-28T11:28:41.974Z,3.40
2023-02-28T11:31:14.282Z,4.20
2023-02-28T11:33:51.834Z,3.30
2023-02-28T11:36:29.418Z,2.60
2023-02-28T11:39:12.793Z,2.70
2023-02-28T11:42:16.609Z,2.00
2023-02-28T11:45:24.319Z,1.60
2023-02-28T11:48:04.899Z,1.10
2023-02-28T11:50:42.728Z,1.30
2023-02-28T11:53:52.977Z,1.90
2023-02-28T11:56:44.861Z,1.80
2023-02-28T11:59:55.737Z,1.60
2023-02-28T12:02:51.392Z,1.20
2023-02-28T12:05:40.415Z,1.40
2023-02-28T12:09:00.381Z,1.70
2023-02-28T12:11:53.832Z,1.30
2023-02-28T12:14:53.809Z,2.40
2023-02-28T12:17:55.518Z,1.30
2023-02-28T12:20:37.476Z,1.60
2023-02-28T12:23:31.713Z,1.80
2023-02-28T12:26:17.817Z,1.50
2023-02-28T12:29:05.519Z,1.20
2023-02-28T12:32:00.038Z,1.60
2023-02-28T12:34:43.177Z,1.70
2023-02-28T12:37:25.497Z,1.40
2023-02-28T12:40:03.618Z,1.40
2023-02-28T12:42:42.784Z,1.80
2023-02-28T12:45:51.928Z,1.80
2023-02-28T12:48:29.936Z,1.60
2023-02-28T12:50:58.265Z,1.60
2023-02-28T12:53:57.106Z,0.70
2023-02-28T12:56:51.496Z,1.60
2023-02-28T12:59:58.844Z,1.20
2023-02-28T13:02:52.564Z,1.50
2023-02-28T13:05:45.384Z,1.20
2023-02-28T13:09:00.327Z,1.30
2023-02-28T13:11:42.388Z,1.20
2023-02-28T13:14:35.789Z,1.30
2023-02-28T13:17:13.144Z,1.70
2023-02-28T13:19:46.108Z,1.20
2023-02-28T13:22:38.476Z,1.20
2023-02-28T13:25:23.421Z,1.70
2023-02-28T13:27:56.908Z,1.50
2023-02-28T13:30:54.931Z,1.60
2023-02-28T13:33:35.749Z,1.70
2023-02-28T13:36:14.781Z,0.90
2023-02-28T13:38:49.361Z,1.80
2023-02-28T13:41:43.208Z,1.00
2023-02-28T13:44:15.882Z,1.40
2023-02-28T13:47:21.492Z,1.20
2023-02-28T13:49:49.677Z,1.40
2023-02-28T13:52:22.236Z,1.30
2023-02-28T13:55:27.921Z,1.20
2023-02-28T13:58:27.403Z,1.40
2023-02-28T14:01:02.673Z,0.70
2023-02-28T14:04:12.870Z,1.10
2023-02-28T14:06:57.990Z,1.00
2023-02-28T14:09:39.769Z,1.30
2023-02-28T14:12:51.027Z,1.10
2023-02-28T14:15:42.240Z,1.00
2023-02-28T14:18:31.415Z,1.20
2023-02-28T14:21:07.820Z,1.10
2023-02-28T14:23:57.905Z,0.90
2023-02-28T14:27:04.623Z,1.40
2023-02-28T14:30:02.058Z,1.40
2023-02-28T14:32:38.617Z,1.00
2023-02-28T14:35:40.423Z,0.90
2023-02-28T14:38:21.817Z,1.60
2023-02-28T14:40:53.740Z,1.60
2023-02-28T14:43:27.917Z,1.50
2023-02-28T14:45:59.836Z,1.40
2023-02-28T14:48:27.399Z,1.70
2023-02-28T14:51:00.111Z,1.70
2023-02-28T14:53:35.469Z,1.90
2023-02-28T14:56:02.572Z,1.50
2023-02-28T14:58:33.447Z,1.50
2023-02-28T15:01:04.869Z,1.90
2023-02-28T15:03:36.151Z,2.30
2023-02-28T15:06:18.254Z,2.00
2023-02-28T15:08:46.179Z,2.00
2023-02-28T15:11:19.667Z,2.10
2023-02-28T15:13:51.309Z,2.20
2023-02-28T15:16:22.518Z,2.60
2023-02-28T15:19:01.462Z,2.50
2023-02-28T15:21:42.317Z,1.90
2023-02-28T15:24:31.142Z,2.90
2023-02-28T15:27:04.873Z,2.30
2023-02-28T15:29:49.666Z,2.40
2023-02-28T15:32:31.619Z,2.70
2023-02-28T15:35:27.184Z,2.70
2023-02-28T15:38:14.884Z,2.50
2023-02-28T15:40:54.064Z,2.50
2023-02-28T15:43:35.580Z,2.90
2023-02-28T15:46:10.415Z,2.60
2023-02-28T15:48:46.652Z,2.90
2023-02-28T15:51:22.814Z,3.40
2023-02-28T15:54:05.134Z,3.10
2023-02-28T15:56:38.755Z,3.10
2023-02-28T15:59:18.996Z,3.40
2023-02-28T16:01:46.225Z,4.00
2023-02-28T16:04:20.455Z,3.50
2023-02-28T16:07:02.526Z,3.30
2023-02-28T16:09:32.553Z,3.50
2023-02-28T16:12:03.581Z,4.00
2023-02-28T16:14:31.344Z,4.10
2023-02-28T16:17:05.744Z,4.80
2023-02-28T16:19:34.590Z,4.10
2023-02-28T16:22:02.013Z,4.30
2023-02-28T16:24:29.001Z,4.10
2023-02-28T16:26:58.134Z,4.10
2023-02-28T16:29:31.518Z,4.20
2023-02-28T16:31:58.437Z,4.30
2023-02-28T16:34:25.617Z,3.90
2023-02-28T16:36:53.507Z,3.90
2023-02-28T16:39:26.066Z,4.20
2023-02-28T16:41:52.663Z,4.50
2023-02-28T16:44:34.866Z,4.10
2023-02-28T16:47:03.939Z,4.50
2023-02-28T16:49:30.784Z,4.70
2023-02-28T16:51:57.788Z,4.50
2023-02-28T16:54:24.425Z,4.30
2023-02-28T16:56:51.191Z,4.90
2023-02-28T16:59:24.319Z,4.80
2023-02-28T17:01:52.277Z,5.60
2023-02-28T17:04:19.899Z,5.00
2023-02-28T17:06:47.101Z,5.20
2023-02-28T17:09:28.250Z,5.10
2023-02-28T17:11:57.362Z,5.20
2023-02-28T17:14:23.894Z,5.50
2023-02-28T17:16:50.708Z,5.20
2023-02-28T17:19:18.238Z,5.30
2023-02-28T17:21:45.278Z,5.40
2023-02-28T17:24:14.382Z,5.70
2023-02-28T17:26:43.510Z,6.50
2023-02-28T17:29:22.045Z,6.30
2023-02-28T17:31:48.722Z,7.10
2023-02-28T17:34:18.612Z,7.60
2023-02-28T17:36:48.359Z,7.60
2023-02-28T17:39:24.199Z,7.20
2023-02-28T17:41:52.954Z,7.10
2023-02-28T17:44:21.122Z,7.20
2023-02-28T17:46:48.360Z,7.60
2023-02-28T17:49:15.372Z,7.70
2023-02-28T17:51:42.276Z,6.70
2023-02-28T17:54:08.750Z,6.20
2023-02-28T17:56:35.596Z,6.30
2023-02-28T17:59:03.502Z,7.10
2023-02-28T18:01:30.287Z,7.00
2023-02-28T18:03:57.110Z,6.80
2023-02-28T18:06:28.910Z,7.20
2023-02-28T18:08:55.676Z,8.10
2023-02-28T18:11:23.907Z,7.10
2023-02-28T18:13:55.033Z,7.60
2023-02-28T18:16:22.508Z,7.10
2023-02-28T18:18:49.909Z,7.60
2023-02-28T18:21:17.549Z,5.40
2023-02-28T18:23:47.998Z,5.20
2023-02-28T18:26:17.820Z,5.70
2023-02-28T18:28:46.113Z,5.00
2023-02-28T18:31:17.416Z,6.00
2023-02-28T18:33:48.222Z,5.70
2023-02-28T18:36:15.654Z,4.70
2023-02-28T18:38:43.656Z,5.40
2023-02-28T18:41:11.614Z,5.90
2023-02-28T18:43:39.053Z,5.70
2023-02-28T18:46:09.254Z,5.20
2023-02-28T18:48:36.417Z,5.10
2023-02-28T18:51:12.160Z,5.40
2023-02-28T18:53:40.633Z,5.70
2023-02-28T18:56:11.086Z,4.40
2023-02-28T18:58:38.441Z,5.90
2023-02-28T19:01:26.377Z,6.30
2023-02-28T19:03:52.927Z,7.00
2023-02-28T19:06:20.007Z,5.20
2023-02-28T19:08:57.187Z,4.90
2023-02-28T19:11:25.214Z,5.50
2023-02-28T19:13:52.256Z,5.10
2023-02-28T19:16:21.453Z,4.00
2023-02-28T19:18:49.486Z,4.70
2023-02-28T19:21:19.939Z,4.00
2023-02-28T19:23:47.843Z,2.50
2023-02-28T19:26:22.858Z,4.00
2023-02-28T19:28:49.671Z,2.80
2023-02-28T19:31:23.882Z,3.30
2023-02-28T19:33:52.315Z,3.50
2023-02-28T19:36:20.749Z,2.90
2023-02-28T19:38:48.205Z,2.80
2023-02-28T19:41:17.341Z,1.90
2023-02-28T19:43:44.293Z,2.20
2023-02-28T19:46:12.841Z,3.10
2023-02-28T19:48:41.825Z,2.90
2023-02-28T19:51:11.822Z,2.30
2023-02-28T19:53:40.868Z,3.60
2023-02-28T19:56:09.051Z,2.40
2023-02-28T19:58:36.721Z,2.90
2023-02-28T20:01:17.463Z,2.50
2023-02-28T20:03:48.858Z,3.00
2023-02-28T20:06:15.688Z,2.70
2023-02-28T20:08:42.860Z,2.50
2023-02-28T20:11:14.464Z,3.10
2023-02-28T20:13:41.922Z,3.00
2023-02-28T20:16:12.518Z,3.10
2023-02-28T20:18:41.453Z,2.80
2023-02-28T20:21:09.692Z,2.80
2023-02-28T20:23:41.272Z,2.70
2023-02-28T20:26:09.290Z,2.90
2023-02-28T20:28:37.076Z,3.00
2023-02-28T20:31:15.962Z,3.40
2023-02-28T20:33:46.248Z,3.20
2023-02-28T20:36:15.071Z,2.60
2023-02-28T20:38:42.766Z,2.40
2023-02-28T20:41:09.340Z,2.00
2023-02-28T20:43:36.257Z,3.30
2023-02-28T20:46:03.364Z,2.80
2023-02-28T20:48:31.779Z,2.40
2023-02-28T20:50:59.553Z,2.30
2023-02-28T20:53:27.571Z,2.80
2023-02-28T20:56:13.064Z,2.70
2023-02-28T20:58:39.708Z,2.60
2023-02-28T21:01:16.364Z,3.20
2023-02-28T21:03:48.931Z,1.90
2023-02-28T21:06:19.429Z,2.50
2023-02-28T21:08:45.930Z,2.00
2023-02-28T21:11:23.426Z,2.80
2023-02-28T21:13:51.259Z,2.60
2023-02-28T21:16:21.988Z,3.70
2023-02-28T21:18:49.562Z,2.20
2023-02-28T21:21:20.740Z,3.60
2023-02-28T21:23:48.358Z,1.50
2023-02-28T21:26:18.786Z,3.00
2023-02-28T21:28:58.528Z,2.30
2023-02-28T21:31:28.567Z,2.50
2023-02-28T21:33:57.419Z,3.30
2023-02-28T21:36:32.021Z,3.40
2023-02-28T21:39:03.598Z,2.90
2023-02-28T21:41:30.523Z,2.70
2023-02-28T21:43:56.909Z,3.10
2023-02-28T21:46:27.276Z,3.10
2023-02-28T21:48:55.584Z,3.30
2023-02-28T21:51:30.564Z,3.30
2023-02-28T21:53:59.290Z,3.30
2023-02-28T21:56:30.502Z,1.90
2023-02-28T21:59:00.492Z,2.30
2023-02-28T22:01:43.971Z,1.70
2023-02-28T22:04:20.635Z,1.80
2023-02-28T22:06:58.520Z,2.00
2023-02-28T22:09:25.479Z,2.50
2023-02-28T22:11:51.870Z,1.30
2023-02-28T22:14:18.649Z,2.40
2023-02-28T22:16:51.865Z,2.60
2023-02-28T22:19:20.501Z,2.70
2023-02-28T22:21:47.106Z,2.00
2023-02-28T22:24:14.038Z,1.50
2023-02-28T22:26:40.541Z,2.30
2023-02-28T22:29:07.330Z,1.80
2023-02-28T22:31:35.898Z,1.90
2023-02-28T22:34:07.131Z,1.60
2023-02-28T22:36:34.960Z,2.80
2023-02-28T22:39:03.425Z,1.80
2023-02-28T22:41:29.948Z,2.90
2023-02-28T22:44:04.113Z,2.20
2023-02-28T22:46:34.283Z,2.00
2023-02-28T22:49:03.955Z,1.60
2023-02-28T22:51:31.040Z,2.30
2023-02-28T22:53:58.035Z,1.80
2023-02-28T22:56:29.444Z,2.60
2023-02-28T22:59:08.364Z,2.20
2023-02-28T23:01:37.370Z,2.10
2023-02-28T23:04:04.207Z,3.00
2023-02-28T23:06:37.435Z,3.00
2023-02-28T23:09:08.873Z,1.70
2023-02-28T23:11:43.100Z,1.80
2023-02-28T23:14:13.441Z,1.60
2023-02-28T23:16:43.085Z,2.00
2023-02-28T23:19:14.585Z,1.40
2023-02-28T23:21:44.286Z,1.10
2023-02-28T23:24:14.820Z,1.80
2023-02-28T23:26:45.766Z,1.60
2023-02-28T23:29:15.509Z,3.00
2023-02-28T23:31:42.012Z,1.60
2023-02-28T23:34:10.111Z,1.90
2023-02-28T23:36:45.432Z,1.90
2023-02-28T23:39:15.971Z,2.40
2023-02-28T23:41:43.068Z,2.40
2023-02-28T23:44:16.201Z,1.80
2023-02-28T23:46:46.147Z,2.50
2023-02-28T23:49:15.292Z,2.30
2023-02-28T23:51:41.729Z,2.30
2023-02-28T23:54:08.256Z,2.00
2023-02-28T23:56:34.694Z,1.00
2023-02-28T23:59:01.210Z,1.90
